New Concord, Ohio
Current Conditions -  °F | °C
As of 7:41 AM on Monday 26 Jan 2015 (Local Time) from KZZV Reporting Station
Light Snow Light Snow  
Wind Chill: 13°   Ceiling: 1900
Heat Index: 22°   Visibility: 1mi
Dew Point: 19°   Wind: 8mph
Humidity: 89%   Direction: 350°N
Pressure: 29.74"   Gusts: NA
Location:  39.99°N, 81.73°W
Report Text: KZZV 261241Z AUTO 35007KT 1SM -SN BR BKN019 OVC029 M06/M07 A2974 RMK AO2 P0002 T10561072
Loading
Personal Weather Stations






























Interactive Weather Map New forecast layout! Learn more

10-Day Weather Forecast

Advertisements
Track Severe Weather on mobile